createdAt,value
2022-12-19T00:00:31.903Z,39.93
2022-12-19T00:03:01.720Z,31.07
2022-12-19T00:05:30.096Z,44.63
2022-12-19T00:07:59.000Z,33.53
2022-12-19T00:10:30.714Z,39.07
2022-12-19T00:12:58.976Z,32.73
2022-12-19T00:15:27.282Z,30.70
2022-12-19T00:17:55.556Z,38.77
2022-12-19T00:20:25.254Z,33.03
2022-12-19T00:22:53.585Z,48.70
2022-12-19T00:25:22.034Z,31.40
2022-12-19T00:27:50.333Z,40.97
2022-12-19T00:30:18.996Z,32.17
2022-12-19T00:32:47.677Z,39.17
2022-12-19T00:35:16.214Z,31.63
2022-12-19T00:37:49.729Z,36.17
2022-12-19T00:40:18.625Z,41.53
2022-12-19T00:42:53.188Z,28.53
2022-12-19T00:45:22.090Z,33.67
2022-12-19T00:47:50.377Z,38.97
2022-12-19T00:50:18.746Z,36.33
2022-12-19T00:52:48.354Z,42.60
2022-12-19T00:55:19.301Z,44.37
2022-12-19T00:57:48.346Z,33.53
2022-12-19T01:00:18.642Z,33.87
2022-12-19T01:02:47.267Z,34.30
2022-12-19T01:05:15.637Z,33.87
2022-12-19T01:07:43.925Z,30.90
2022-12-19T01:10:13.988Z,30.87
2022-12-19T01:12:46.949Z,27.03
2022-12-19T01:15:17.672Z,33.67
2022-12-19T01:17:46.104Z,40.83
2022-12-19T01:20:16.673Z,31.50
2022-12-19T01:22:46.921Z,37.47
2022-12-19T01:25:17.256Z,32.27
2022-12-19T01:27:45.573Z,39.73
2022-12-19T01:30:14.910Z,34.83
2022-12-19T01:32:43.685Z,32.77
2022-12-19T01:35:19.780Z,30.37
2022-12-19T01:37:51.527Z,27.87
2022-12-19T01:40:22.526Z,26.00
2022-12-19T01:42:51.589Z,28.23
2022-12-19T01:45:34.473Z,28.63
2022-12-19T01:48:18.523Z,31.03
2022-12-19T01:51:01.283Z,24.30
2022-12-19T01:53:49.467Z,30.70
2022-12-19T01:56:24.169Z,25.63
2022-12-19T01:59:05.605Z,31.03
2022-12-19T02:01:44.983Z,31.43
2022-12-19T02:04:21.491Z,34.40
2022-12-19T02:06:51.258Z,28.27
2022-12-19T02:09:20.094Z,27.83
2022-12-19T02:11:54.069Z,31.60
2022-12-19T02:14:23.149Z,38.43
2022-12-19T02:17:02.850Z,31.43
2022-12-19T02:20:16.815Z,29.43
2022-12-19T02:23:04.506Z,27.77
2022-12-19T02:26:01.422Z,22.93
2022-12-19T02:29:11.828Z,32.53
2022-12-19T02:31:49.303Z,28.60
2022-12-19T02:34:26.886Z,28.47
2022-12-19T02:37:06.118Z,35.57
2022-12-19T02:39:43.121Z,28.13
2022-12-19T02:42:16.281Z,27.97
2022-12-19T02:44:52.289Z,23.87
2022-12-19T02:47:23.347Z,29.63
2022-12-19T02:49:51.952Z,23.43
2022-12-19T02:52:46.046Z,23.50
2022-12-19T02:55:21.328Z,26.47
2022-12-19T02:58:16.869Z,27.30
2022-12-19T03:01:11.180Z,27.73
2022-12-19T03:03:53.422Z,23.37
2022-12-19T03:06:32.890Z,28.20
2022-12-19T03:09:10.735Z,22.47
2022-12-19T03:11:43.089Z,25.07
2022-12-19T03:14:15.587Z,23.53
2022-12-19T03:16:44.168Z,27.30
2022-12-19T03:19:15.987Z,20.27
2022-12-19T03:21:47.732Z,17.57
2022-12-19T03:24:17.764Z,26.23
2022-12-19T03:26:53.184Z,19.80
2022-12-19T03:29:28.285Z,24.47
2022-12-19T03:31:58.379Z,20.70
2022-12-19T03:34:33.585Z,21.57
2022-12-19T03:37:06.465Z,20.07
2022-12-19T03:39:37.295Z,25.37
2022-12-19T03:42:25.113Z,20.77
2022-12-19T03:44:56.692Z,21.03
2022-12-19T03:47:32.942Z,22.73
2022-12-19T03:50:02.936Z,18.97
2022-12-19T03:52:40.343Z,21.70
2022-12-19T03:55:16.472Z,18.80
2022-12-19T03:57:52.515Z,17.60
2022-12-19T04:00:22.150Z,15.50
2022-12-19T04:02:53.526Z,22.03
2022-12-19T04:05:27.022Z,23.10
2022-12-19T04:07:59.311Z,22.07
2022-12-19T04:10:29.980Z,25.30
2022-12-19T04:13:04.173Z,19.63
2022-12-19T04:15:42.833Z,20.23
2022-12-19T04:18:14.830Z,24.77
2022-12-19T04:20:48.241Z,23.60
2022-12-19T04:23:22.658Z,16.57
2022-12-19T04:25:56.577Z,16.10
2022-12-19T04:28:31.652Z,17.80
2022-12-19T04:31:01.029Z,17.20
2022-12-19T04:33:29.317Z,17.23
2022-12-19T04:35:59.602Z,20.47
2022-12-19T04:38:28.340Z,17.70
2022-12-19T04:40:56.656Z,18.27
2022-12-19T04:43:24.995Z,15.40
2022-12-19T04:45:57.273Z,13.80
2022-12-19T04:48:26.177Z,13.73
2022-12-19T04:50:54.701Z,15.03
2022-12-19T04:53:25.672Z,13.87
2022-12-19T04:56:02.346Z,14.73
2022-12-19T04:58:30.808Z,15.93
2022-12-19T05:01:03.029Z,14.97
2022-12-19T05:03:31.326Z,15.77
2022-12-19T05:06:07.963Z,10.70
2022-12-19T05:08:39.406Z,14.53
2022-12-19T05:11:19.175Z,15.47
2022-12-19T05:13:49.933Z,13.90
2022-12-19T05:16:18.814Z,13.63
2022-12-19T05:18:47.315Z,14.70
2022-12-19T05:21:15.793Z,15.73
2022-12-19T05:23:45.410Z,13.90
2022-12-19T05:26:14.165Z,18.97
2022-12-19T05:28:42.655Z,18.00
2022-12-19T05:31:15.892Z,19.17
2022-12-19T05:33:44.922Z,15.40
2022-12-19T05:36:16.656Z,15.83
2022-12-19T05:38:46.549Z,13.93
2022-12-19T05:41:16.584Z,18.37
2022-12-19T05:43:46.096Z,13.80
2022-12-19T05:46:14.464Z,18.47
2022-12-19T05:48:42.861Z,13.67
2022-12-19T05:51:11.757Z,19.33
2022-12-19T05:53:41.313Z,12.70
2022-12-19T05:56:13.357Z,14.70
2022-12-19T05:58:42.869Z,12.47
2022-12-19T06:01:14.869Z,20.77
2022-12-19T06:03:44.289Z,21.30
2022-12-19T06:06:15.836Z,18.50
2022-12-19T06:08:44.487Z,17.50
2022-12-19T06:11:15.349Z,14.73
2022-12-19T06:13:44.000Z,16.50
2022-12-19T06:16:15.014Z,13.37
2022-12-19T06:18:45.614Z,18.67
2022-12-19T06:21:17.406Z,15.23
2022-12-19T06:23:46.456Z,16.60
2022-12-19T06:26:20.309Z,15.17
2022-12-19T06:28:49.628Z,10.73
2022-12-19T06:31:18.902Z,19.03
2022-12-19T06:33:47.340Z,15.90
2022-12-19T06:36:20.633Z,13.93
2022-12-19T06:38:49.517Z,16.80
2022-12-19T06:41:37.441Z,15.43
2022-12-19T06:44:09.232Z,14.17
2022-12-19T06:46:38.642Z,17.93
2022-12-19T06:49:07.507Z,14.93
2022-12-19T06:51:36.005Z,17.40
2022-12-19T06:54:04.856Z,12.57
2022-12-19T06:56:38.268Z,14.87
2022-12-19T06:59:07.521Z,15.77
2022-12-19T07:01:59.054Z,16.20
2022-12-19T07:04:33.056Z,15.70
2022-12-19T07:07:01.881Z,15.07
2022-12-19T07:09:31.863Z,19.87
2022-12-19T07:12:01.823Z,11.83
2022-12-19T07:14:30.108Z,13.10
2022-12-19T07:17:01.045Z,13.97
2022-12-19T07:19:31.548Z,13.30
2022-12-19T07:22:01.641Z,14.50
2022-12-19T07:24:30.922Z,16.20
2022-12-19T07:27:01.008Z,16.77
2022-12-19T07:29:29.245Z,14.57
2022-12-19T07:31:57.563Z,13.70
2022-12-19T07:34:25.900Z,15.63
2022-12-19T07:36:54.231Z,12.40
2022-12-19T07:39:22.928Z,16.27
2022-12-19T07:41:51.188Z,18.60
2022-12-19T07:44:32.459Z,13.27
2022-12-19T07:47:00.670Z,12.43
2022-12-19T07:49:29.011Z,16.17
2022-12-19T07:51:57.435Z,12.73
2022-12-19T07:54:25.844Z,15.40
2022-12-19T07:56:54.211Z,12.13
2022-12-19T07:59:28.884Z,14.47
2022-12-19T08:02:00.178Z,13.53
2022-12-19T08:04:28.697Z,12.70
2022-12-19T08:06:57.342Z,12.10
2022-12-19T08:09:27.726Z,16.40
2022-12-19T08:11:56.369Z,12.03
2022-12-19T08:14:24.628Z,13.20
2022-12-19T08:19:42.661Z,13.10
2022-12-19T08:22:10.982Z,13.53
2022-12-19T08:24:39.432Z,14.00
2022-12-19T08:27:07.690Z,12.13
2022-12-19T08:29:36.053Z,15.10
2022-12-19T08:32:04.455Z,15.57
2022-12-19T08:34:32.915Z,12.90
2022-12-19T08:37:02.674Z,13.33
2022-12-19T08:39:31.010Z,15.10
2022-12-19T08:41:59.253Z,19.03
2022-12-19T08:44:27.543Z,13.80
2022-12-19T08:46:55.987Z,11.17
2022-12-19T08:49:24.350Z,14.20
2022-12-19T08:51:52.627Z,12.40
2022-12-19T08:54:22.450Z,12.77
2022-12-19T08:56:50.739Z,14.67
2022-12-19T08:59:30.333Z,14.30
2022-12-19T09:02:00.616Z,15.23
2022-12-19T09:05:11.122Z,15.20
2022-12-19T09:07:18.383Z,11.33
2022-12-19T09:09:48.103Z,14.40
2022-12-19T09:12:17.365Z,15.27
2022-12-19T09:14:45.941Z,13.87
2022-12-19T09:17:15.313Z,10.83
2022-12-19T09:19:45.111Z,11.30
2022-12-19T09:22:16.988Z,12.57
2022-12-19T09:24:45.721Z,14.10
2022-12-19T09:27:15.562Z,13.33
2022-12-19T09:29:44.467Z,11.20
2022-12-19T09:32:12.903Z,17.70
2022-12-19T09:34:41.279Z,10.10
2022-12-19T09:37:15.948Z,10.33
2022-12-19T09:39:47.319Z,17.13
2022-12-19T09:43:02.313Z,18.13
2022-12-19T09:45:46.198Z,14.90
2022-12-19T09:48:22.849Z,10.93
2022-12-19T09:51:10.532Z,13.07
2022-12-19T09:53:54.666Z,18.90
2022-12-19T09:56:45.645Z,11.37
2022-12-19T09:59:28.725Z,14.23
2022-12-19T10:02:27.359Z,13.20
2022-12-19T10:05:27.460Z,13.70
2022-12-19T10:08:08.299Z,13.57
2022-12-19T10:12:38.877Z,16.87
2022-12-19T10:14:04.002Z,13.43
2022-12-19T10:17:22.440Z,14.37
2022-12-19T10:19:58.397Z,10.33
2022-12-19T10:22:39.100Z,12.63
2022-12-19T10:25:29.235Z,12.87
2022-12-19T10:28:13.310Z,10.63
2022-12-19T10:30:48.666Z,9.60
2022-12-19T10:33:29.819Z,12.40
2022-12-19T10:36:03.062Z,11.70
2022-12-19T10:38:38.802Z,11.87
2022-12-19T10:41:19.437Z,12.90
2022-12-19T10:44:02.440Z,14.20
2022-12-19T10:46:42.846Z,16.83
2022-12-19T10:49:18.789Z,11.30
2022-12-19T10:52:00.001Z,10.97
2022-12-19T10:54:41.589Z,10.10
2022-12-19T10:57:25.498Z,12.07
2022-12-19T10:59:59.411Z,13.00
2022-12-19T11:02:44.581Z,12.43
2022-12-19T11:05:28.232Z,10.50
2022-12-19T11:08:17.979Z,17.33
2022-12-19T11:12:48.524Z,10.83
2022-12-19T11:18:37.845Z,13.40
2022-12-19T11:21:38.550Z,13.70
2022-12-19T11:29:43.776Z,12.23
2022-12-19T11:30:06.588Z,10.97
2022-12-19T11:30:25.575Z,12.63
2022-12-19T11:30:47.112Z,12.50
2022-12-19T11:34:07.050Z,11.60
2022-12-19T11:36:42.434Z,11.10
2022-12-19T11:39:19.884Z,11.93
2022-12-19T11:41:56.316Z,13.57
2022-12-19T11:44:31.423Z,12.80
2022-12-19T11:47:14.257Z,11.60
2022-12-19T11:49:47.446Z,11.20
2022-12-19T11:55:23.618Z,15.70
2022-12-19T11:57:52.899Z,21.00
2022-12-19T12:00:24.556Z,21.23
2022-12-19T12:03:15.567Z,26.63
2022-12-19T12:05:45.741Z,17.23
2022-12-19T12:10:21.217Z,11.10
2022-12-19T12:18:59.217Z,19.50
2022-12-19T12:29:17.048Z,12.53
2022-12-19T12:31:14.804Z,10.70
2022-12-19T12:31:17.895Z,10.70
2022-12-19T12:31:23.394Z,8.50
2022-12-19T12:31:39.011Z,7.70
2022-12-19T12:31:58.265Z,7.80
2022-12-19T12:35:28.675Z,8.87
2022-12-19T12:39:16.039Z,6.43
2022-12-19T12:42:06.174Z,8.43
2022-12-19T12:44:44.841Z,7.20
2022-12-19T12:47:20.491Z,8.07
2022-12-19T12:49:54.361Z,7.10
2022-12-19T12:52:31.044Z,7.03
2022-12-19T12:54:59.635Z,7.70
2022-12-19T12:57:39.671Z,6.27
2022-12-19T13:00:22.606Z,6.10
2022-12-19T13:02:56.287Z,4.43
2022-12-19T13:05:39.385Z,5.27
2022-12-19T13:08:36.276Z,7.33
2022-12-19T13:11:07.952Z,4.53
2022-12-19T13:13:58.615Z,5.27
2022-12-19T13:16:54.032Z,5.90
2022-12-19T13:19:28.440Z,4.63
2022-12-19T13:22:22.498Z,7.27
2022-12-19T13:24:53.487Z,4.80
2022-12-19T13:27:40.684Z,5.53
2022-12-19T13:30:19.802Z,7.43
2022-12-19T13:33:11.305Z,4.93
2022-12-19T13:39:48.280Z,5.30
2022-12-19T13:39:56.269Z,5.03
2022-12-19T13:41:59.958Z,4.53
2022-12-19T13:44:28.859Z,6.03
2022-12-19T13:46:58.454Z,4.43
2022-12-19T13:49:34.803Z,4.47
2022-12-19T13:52:06.316Z,5.67
2022-12-19T13:54:46.507Z,5.87
2022-12-19T13:57:23.924Z,5.77
2022-12-19T14:00:00.575Z,7.23
2022-12-19T14:02:44.861Z,6.17
2022-12-19T14:05:53.298Z,4.10
2022-12-19T14:08:20.854Z,5.60
2022-12-19T14:11:29.835Z,5.43
2022-12-19T14:14:12.786Z,5.60
2022-12-19T14:16:46.445Z,5.83
2022-12-19T14:19:27.620Z,10.77
2022-12-19T14:22:03.778Z,15.73
2022-12-19T14:24:37.009Z,23.93
2022-12-19T14:28:18.956Z,38.70
2022-12-19T14:30:27.901Z,8.20
2022-12-19T14:33:40.694Z,3.20
2022-12-19T14:36:08.841Z,2.37
2022-12-19T14:39:22.087Z,4.30
2022-12-19T14:42:08.341Z,3.20
2022-12-19T14:53:52.604Z,5.17
2022-12-19T14:54:08.902Z,4.90
2022-12-19T14:54:14.803Z,6.80
2022-12-19T14:54:31.363Z,5.70
2022-12-19T14:59:05.366Z,6.00
2022-12-19T15:01:36.721Z,5.23
2022-12-19T15:04:49.466Z,4.03
2022-12-19T15:07:12.212Z,3.93
2022-12-19T15:11:03.347Z,8.20
2022-12-19T15:14:46.750Z,5.53
2022-12-19T15:16:05.255Z,7.90
2022-12-19T15:18:42.475Z,5.40
2022-12-19T15:21:14.082Z,5.63
2022-12-19T15:23:44.716Z,4.73
2022-12-19T15:26:18.187Z,5.77
2022-12-19T15:28:50.769Z,4.90
2022-12-19T15:31:30.130Z,6.17
2022-12-19T15:36:47.373Z,4.83
2022-12-19T15:39:16.179Z,3.67
2022-12-19T15:41:49.014Z,3.90
2022-12-19T15:44:21.288Z,3.90
2022-12-19T15:46:50.289Z,3.90
2022-12-19T15:49:21.883Z,5.73
2022-12-19T15:51:51.317Z,5.70
2022-12-19T15:57:25.635Z,6.83
2022-12-19T15:59:54.518Z,5.47
2022-12-19T16:02:27.896Z,6.03
2022-12-19T16:05:06.933Z,5.63
2022-12-19T16:07:35.308Z,5.90
2022-12-19T16:10:03.728Z,3.27
2022-12-19T16:12:39.079Z,4.90
2022-12-19T16:15:16.429Z,4.70
2022-12-19T16:17:44.734Z,6.63
2022-12-19T16:20:20.087Z,5.33
2022-12-19T16:22:48.651Z,5.60
2022-12-19T16:25:17.351Z,8.33
2022-12-19T16:27:52.113Z,3.90
2022-12-19T16:30:24.025Z,5.80
2022-12-19T16:32:53.474Z,5.10
2022-12-19T16:36:02.501Z,6.13
2022-12-19T16:38:17.461Z,4.93
2022-12-19T16:40:47.191Z,4.77
2022-12-19T16:43:31.271Z,3.70
2022-12-19T16:46:01.763Z,5.40
2022-12-19T16:48:31.641Z,5.90
2022-12-19T16:51:00.867Z,3.93
2022-12-19T16:53:29.402Z,4.93
2022-12-19T16:56:00.501Z,4.10
2022-12-19T16:58:34.484Z,4.20
2022-12-19T17:01:05.244Z,4.37
2022-12-19T17:03:40.874Z,4.87
2022-12-19T17:06:12.394Z,6.50
2022-12-19T17:08:44.157Z,5.00
2022-12-19T17:11:19.886Z,4.13
2022-12-19T17:13:53.575Z,5.40
2022-12-19T17:16:22.127Z,8.80
2022-12-19T17:18:50.615Z,6.00
2022-12-19T17:21:21.620Z,5.90
2022-12-19T17:23:50.734Z,4.53
2022-12-19T17:26:19.434Z,5.27
2022-12-19T17:28:49.337Z,6.80
2022-12-19T17:31:24.277Z,5.60
2022-12-19T17:33:53.321Z,5.67
2022-12-19T17:36:26.087Z,5.47
2022-12-19T17:38:55.967Z,5.50
2022-12-19T17:41:25.484Z,4.20
2022-12-19T17:43:55.177Z,6.57
2022-12-19T17:46:25.743Z,5.60
2022-12-19T17:48:55.295Z,7.73
2022-12-19T17:51:24.716Z,6.07
2022-12-19T17:53:53.017Z,5.10
2022-12-19T17:56:22.359Z,6.40
2022-12-19T17:58:51.132Z,5.93
2022-12-19T18:01:23.852Z,6.50
2022-12-19T18:03:56.110Z,6.50
2022-12-19T18:06:24.593Z,5.17
2022-12-19T18:08:52.942Z,6.20
2022-12-19T18:11:24.086Z,4.47
2022-12-19T18:13:54.596Z,5.43
2022-12-19T18:16:28.348Z,9.47
2022-12-19T18:18:56.915Z,6.60
2022-12-19T18:21:25.315Z,5.50
2022-12-19T18:23:53.772Z,5.47
2022-12-19T18:26:22.109Z,24.23
2022-12-19T18:28:50.437Z,5.40
2022-12-19T18:31:25.525Z,12.07
2022-12-19T18:33:59.559Z,7.67
2022-12-19T18:36:40.086Z,7.30
2022-12-19T18:39:21.086Z,6.80
2022-12-19T18:41:50.252Z,6.33
2022-12-19T18:44:19.342Z,3.87
2022-12-19T18:46:50.670Z,5.27
2022-12-19T18:49:19.072Z,6.73
2022-12-19T18:51:47.753Z,3.60
2022-12-19T18:54:18.747Z,7.17
2022-12-19T18:56:48.647Z,6.27
2022-12-19T18:59:17.244Z,9.13
2022-12-19T19:01:48.400Z,9.13
2022-12-19T19:04:18.368Z,7.53
2022-12-19T19:06:52.156Z,4.50
2022-12-19T19:09:22.623Z,4.83
2022-12-19T19:11:59.317Z,5.80
2022-12-19T19:14:27.622Z,8.33
2022-12-19T19:16:57.307Z,3.90
2022-12-19T19:19:26.194Z,6.20
2022-12-19T19:21:55.343Z,9.23
2022-12-19T19:24:24.457Z,4.50
2022-12-19T19:26:53.037Z,7.50
2022-12-19T19:29:21.381Z,7.10
2022-12-19T19:31:52.855Z,7.60
2022-12-19T19:34:27.118Z,5.97
2022-12-19T19:36:58.343Z,4.70
2022-12-19T19:39:27.730Z,4.97
2022-12-19T19:41:56.841Z,6.60
2022-12-19T19:44:25.155Z,9.30
2022-12-19T19:46:53.943Z,5.53
2022-12-19T19:49:24.347Z,7.30
2022-12-19T19:51:58.507Z,5.83
2022-12-19T19:54:30.698Z,5.57
2022-12-19T19:56:59.527Z,7.60
2022-12-19T19:59:31.746Z,4.67
2022-12-19T20:02:00.232Z,5.97
2022-12-19T20:04:30.262Z,7.23
2022-12-19T20:06:58.826Z,5.43
2022-12-19T20:09:27.204Z,5.03
2022-12-19T20:11:56.643Z,5.77
2022-12-19T20:14:26.553Z,5.17
2022-12-19T20:16:55.240Z,6.40
2022-12-19T20:19:23.789Z,6.57
2022-12-19T20:21:53.554Z,6.80
2022-12-19T20:24:21.907Z,7.50
2022-12-19T20:26:50.355Z,6.40
2022-12-19T20:29:18.987Z,5.77
2022-12-19T20:31:47.721Z,5.97
2022-12-19T20:34:16.380Z,4.80
2022-12-19T20:36:45.131Z,6.63
2022-12-19T20:39:15.147Z,8.10
2022-12-19T20:41:43.500Z,7.57
2022-12-19T20:44:11.815Z,7.33
2022-12-19T20:46:40.250Z,7.90
2022-12-19T20:49:08.968Z,6.87
2022-12-19T20:51:38.041Z,5.67
2022-12-19T20:54:07.344Z,11.13
2022-12-19T20:56:37.223Z,7.23
2022-12-19T20:59:05.971Z,4.43
2022-12-19T21:01:34.546Z,6.20
2022-12-19T21:04:03.206Z,8.20
2022-12-19T21:06:31.930Z,6.30
2022-12-19T21:09:00.225Z,5.40
2022-12-19T21:11:28.630Z,6.70
2022-12-19T21:13:58.461Z,8.13
2022-12-19T21:16:28.004Z,5.53
2022-12-19T21:18:56.331Z,7.13
2022-12-19T21:21:27.811Z,7.40
2022-12-19T21:23:56.709Z,7.77
2022-12-19T21:26:26.664Z,8.70
2022-12-19T21:28:57.870Z,8.67
2022-12-19T21:31:30.936Z,7.33
2022-12-19T21:34:02.415Z,7.57
2022-12-19T21:36:32.169Z,8.00
2022-12-19T21:39:02.673Z,5.53
2022-12-19T21:41:31.717Z,5.30
2022-12-19T21:44:00.886Z,5.77
2022-12-19T21:46:33.981Z,5.77
2022-12-19T21:49:03.271Z,6.60
2022-12-19T21:51:32.958Z,8.70
2022-12-19T21:54:04.165Z,9.17
2022-12-19T21:56:35.096Z,7.93
2022-12-19T21:59:06.845Z,7.00
2022-12-19T22:01:36.897Z,9.00
2022-12-19T22:04:08.553Z,7.57
2022-12-19T22:06:39.253Z,7.07
2022-12-19T22:09:10.627Z,9.07
2022-12-19T22:11:39.400Z,14.13
2022-12-19T22:14:08.567Z,8.07
2022-12-19T22:16:38.436Z,11.90
2022-12-19T22:19:07.223Z,6.50
2022-12-19T22:21:38.543Z,7.03
2022-12-19T22:24:07.584Z,7.03
2022-12-19T22:26:36.464Z,8.30
2022-12-19T22:29:09.383Z,6.80
2022-12-19T22:31:40.785Z,7.30
2022-12-19T22:34:13.031Z,7.70
2022-12-19T22:36:43.400Z,7.10
2022-12-19T22:39:16.393Z,7.20
2022-12-19T22:41:45.268Z,6.70
2022-12-19T22:44:19.006Z,6.53
2022-12-19T22:46:49.666Z,5.97
2022-12-19T22:49:18.527Z,12.27
2022-12-19T22:51:48.254Z,7.27
2022-12-19T22:54:16.637Z,7.43
2022-12-19T22:56:44.981Z,6.97
2022-12-19T22:59:13.895Z,7.87
2022-12-19T23:01:44.397Z,8.50
2022-12-19T23:04:17.466Z,7.67
2022-12-19T23:06:46.513Z,5.60
2022-12-19T23:09:17.160Z,6.43
2022-12-19T23:11:48.916Z,6.27
2022-12-19T23:14:19.968Z,6.07
2022-12-19T23:16:49.783Z,7.17
2022-12-19T23:19:20.125Z,6.67
2022-12-19T23:21:48.806Z,8.30
2022-12-19T23:24:17.263Z,4.93
2022-12-19T23:26:46.295Z,7.40
2022-12-19T23:29:16.309Z,7.80
2022-12-19T23:31:48.079Z,6.13
2022-12-19T23:34:16.992Z,5.53
2022-12-19T23:39:35.327Z,5.97
2022-12-19T23:42:03.738Z,6.20
2022-12-19T23:44:32.181Z,7.53
2022-12-19T23:47:03.400Z,6.27
2022-12-19T23:49:33.444Z,7.13
2022-12-19T23:52:03.484Z,7.13
2022-12-19T23:54:31.969Z,7.40
2022-12-19T23:57:00.337Z,8.20
2022-12-19T23:59:28.759Z,7.47
